sensor_id;sensor_type;location;lat;lon;timestamp;noise_LAeq;noise_LA_min;noise_LA_max;noise_LA01;noise_LA95
77361;Laerm;66427;51.798;10.954;2023-12-20T00:00:20;33.07;29.48;40.65;;
77361;Laerm;66427;51.798;10.954;2023-12-20T00:02:45;33.08;29.46;51.93;;
77361;Laerm;66427;51.798;10.954;2023-12-20T00:05:14;35.29;30.41;48.53;;
77361;Laerm;66427;51.798;10.954;2023-12-20T00:07:40;33.21;29.63;41.15;;
77361;Laerm;66427;51.798;10.954;2023-12-20T00:10:05;33.63;30.07;40.60;;
77361;Laerm;66427;51.798;10.954;2023-12-20T00:12:31;32.75;29.72;41.07;;
77361;Laerm;66427;51.798;10.954;2023-12-20T00:14:56;52.05;29.46;68.77;;
77361;Laerm;66427;51.798;10.954;2023-12-20T00:17:22;33.27;29.51;40.79;;
77361;Laerm;66427;51.798;10.954;2023-12-20T00:19:47;34.65;30.72;41.40;;
77361;Laerm;66427;51.798;10.954;2023-12-20T00:22:13;34.77;30.86;41.07;;
77361;Laerm;66427;51.798;10.954;2023-12-20T00:24:38;35.67;30.86;45.51;;
77361;Laerm;66427;51.798;10.954;2023-12-20T00:27:03;33.79;30.37;41.20;;
77361;Laerm;66427;51.798;10.954;2023-12-20T00:29:29;33.50;30.84;38.62;;
77361;Laerm;66427;51.798;10.954;2023-12-20T00:31:54;32.86;30.12;37.37;;
77361;Laerm;66427;51.798;10.954;2023-12-20T00:34:20;34.31;30.15;48.21;;
77361;Laerm;66427;51.798;10.954;2023-12-20T00:36:45;33.05;29.30;39.72;;
77361;Laerm;66427;51.798;10.954;2023-12-20T00:39:10;32.66;29.52;38.18;;
77361;Laerm;66427;51.798;10.954;2023-12-20T00:41:36;33.98;30.33;39.79;;
77361;Laerm;66427;51.798;10.954;2023-12-20T00:44:01;32.08;29.35;38.72;;
77361;Laerm;66427;51.798;10.954;2023-12-20T00:46:26;33.90;30.14;42.14;;
77361;Laerm;66427;51.798;10.954;2023-12-20T00:48:52;35.33;30.16;41.50;;
77361;Laerm;66427;51.798;10.954;2023-12-20T00:51:17;33.52;29.55;39.75;;
77361;Laerm;66427;51.798;10.954;2023-12-20T00:53:43;32.72;29.45;38.79;;
77361;Laerm;66427;51.798;10.954;2023-12-20T00:56:08;33.05;29.45;41.71;;
77361;Laerm;66427;51.798;10.954;2023-12-20T00:58:34;32.86;29.43;40.11;;
77361;Laerm;66427;51.798;10.954;2023-12-20T01:00:59;33.11;29.28;40.64;;
77361;Laerm;66427;51.798;10.954;2023-12-20T01:03:24;33.33;29.39;41.17;;
77361;Laerm;66427;51.798;10.954;2023-12-20T01:05:50;32.73;29.27;41.78;;
77361;Laerm;66427;51.798;10.954;2023-12-20T01:08:15;34.00;29.63;42.78;;
77361;Laerm;66427;51.798;10.954;2023-12-20T01:10:40;32.73;29.84;40.25;;
77361;Laerm;66427;51.798;10.954;2023-12-20T01:13:06;34.17;30.61;41.21;;
77361;Laerm;66427;51.798;10.954;2023-12-20T01:15:31;34.21;29.89;41.31;;
77361;Laerm;66427;51.798;10.954;2023-12-20T01:17:57;33.57;30.21;39.22;;
77361;Laerm;66427;51.798;10.954;2023-12-20T01:20:24;33.30;29.56;42.90;;
77361;Laerm;66427;51.798;10.954;2023-12-20T01:22:50;33.79;29.73;41.49;;
77361;Laerm;66427;51.798;10.954;2023-12-20T01:25:15;32.23;28.76;38.49;;
77361;Laerm;66427;51.798;10.954;2023-12-20T01:27:40;31.74;29.03;35.67;;
77361;Laerm;66427;51.798;10.954;2023-12-20T01:30:06;31.63;28.75;38.28;;
77361;Laerm;66427;51.798;10.954;2023-12-20T01:32:31;31.97;29.27;40.88;;
77361;Laerm;66427;51.798;10.954;2023-12-20T01:34:57;32.79;29.27;40.46;;
77361;Laerm;66427;51.798;10.954;2023-12-20T01:37:22;32.65;29.52;40.15;;
77361;Laerm;66427;51.798;10.954;2023-12-20T01:39:50;33.28;30.00;43.10;;
77361;Laerm;66427;51.798;10.954;2023-12-20T01:42:16;33.59;29.63;41.41;;
77361;Laerm;66427;51.798;10.954;2023-12-20T01:44:41;32.91;29.77;40.00;;
77361;Laerm;66427;51.798;10.954;2023-12-20T01:47:07;32.10;29.14;41.17;;
77361;Laerm;66427;51.798;10.954;2023-12-20T01:49:33;31.65;29.06;37.85;;
77361;Laerm;66427;51.798;10.954;2023-12-20T01:51:58;33.30;28.37;42.91;;
77361;Laerm;66427;51.798;10.954;2023-12-20T01:54:23;32.59;29.14;40.01;;
77361;Laerm;66427;51.798;10.954;2023-12-20T01:56:49;32.12;28.77;41.57;;
77361;Laerm;66427;51.798;10.954;2023-12-20T01:59:15;31.00;28.22;37.62;;
77361;Laerm;66427;51.798;10.954;2023-12-20T02:01:41;31.81;28.44;38.51;;
77361;Laerm;66427;51.798;10.954;2023-12-20T02:04:07;30.69;28.24;36.76;;
77361;Laerm;66427;51.798;10.954;2023-12-20T02:06:32;30.16;27.94;35.83;;
77361;Laerm;66427;51.798;10.954;2023-12-20T02:08:58;32.80;29.17;41.83;;
77361;Laerm;66427;51.798;10.954;2023-12-20T02:11:25;29.72;27.43;39.13;;
77361;Laerm;66427;51.798;10.954;2023-12-20T02:13:50;28.80;27.11;34.31;;
77361;Laerm;66427;51.798;10.954;2023-12-20T02:16:15;29.68;27.72;36.00;;
77361;Laerm;66427;51.798;10.954;2023-12-20T02:18:42;29.31;27.50;34.54;;
77361;Laerm;66427;51.798;10.954;2023-12-20T02:21:08;28.63;26.97;33.71;;
77361;Laerm;66427;51.798;10.954;2023-12-20T02:23:34;28.96;26.98;39.27;;
77361;Laerm;66427;51.798;10.954;2023-12-20T02:25:59;29.09;27.32;36.80;;
77361;Laerm;66427;51.798;10.954;2023-12-20T02:28:25;29.81;27.87;38.21;;
77361;Laerm;66427;51.798;10.954;2023-12-20T02:30:50;32.58;28.21;50.88;;
77361;Laerm;66427;51.798;10.954;2023-12-20T02:33:16;42.95;28.68;60.78;;
77361;Laerm;66427;51.798;10.954;2023-12-20T02:35:41;31.18;28.48;35.62;;
77361;Laerm;66427;51.798;10.954;2023-12-20T02:38:07;31.45;28.21;38.35;;
77361;Laerm;66427;51.798;10.954;2023-12-20T02:40:32;29.75;28.08;35.89;;
77361;Laerm;66427;51.798;10.954;2023-12-20T02:42:57;31.48;27.78;36.25;;
77361;Laerm;66427;51.798;10.954;2023-12-20T02:45:23;52.37;28.69;70.44;;
77361;Laerm;66427;51.798;10.954;2023-12-20T02:47:48;29.56;27.84;35.30;;
77361;Laerm;66427;51.798;10.954;2023-12-20T02:50:14;30.08;28.17;34.69;;
77361;Laerm;66427;51.798;10.954;2023-12-20T02:52:39;30.05;28.46;33.50;;
77361;Laerm;66427;51.798;10.954;2023-12-20T02:55:04;47.32;28.09;62.84;;
77361;Laerm;66427;51.798;10.954;2023-12-20T02:57:30;31.29;29.09;35.47;;
77361;Laerm;66427;51.798;10.954;2023-12-20T02:59:55;32.42;29.15;37.17;;
77361;Laerm;66427;51.798;10.954;2023-12-20T03:02:20;32.03;28.02;39.72;;
77361;Laerm;66427;51.798;10.954;2023-12-20T03:04:46;31.31;28.18;37.83;;
77361;Laerm;66427;51.798;10.954;2023-12-20T03:07:11;33.07;29.27;39.69;;
77361;Laerm;66427;51.798;10.954;2023-12-20T03:09:37;35.45;30.20;45.01;;
77361;Laerm;66427;51.798;10.954;2023-12-20T03:12:02;35.86;30.39;47.50;;
77361;Laerm;66427;51.798;10.954;2023-12-20T03:14:28;36.17;31.46;54.23;;
77361;Laerm;66427;51.798;10.954;2023-12-20T03:16:53;36.10;32.47;48.86;;
77361;Laerm;66427;51.798;10.954;2023-12-20T03:19:19;34.28;30.53;42.03;;
77361;Laerm;66427;51.798;10.954;2023-12-20T03:21:44;35.66;31.41;42.82;;
77361;Laerm;66427;51.798;10.954;2023-12-20T03:24:10;35.38;30.52;42.74;;
77361;Laerm;66427;51.798;10.954;2023-12-20T03:26:35;35.53;30.37;41.71;;
77361;Laerm;66427;51.798;10.954;2023-12-20T03:29:00;36.09;30.79;45.12;;
77361;Laerm;66427;51.798;10.954;2023-12-20T03:31:26;33.61;29.10;43.48;;
77361;Laerm;66427;51.798;10.954;2023-12-20T03:33:51;33.69;30.13;42.00;;
77361;Laerm;66427;51.798;10.954;2023-12-20T03:36:19;33.92;29.72;43.72;;
77361;Laerm;66427;51.798;10.954;2023-12-20T03:38:44;36.77;30.05;58.06;;
77361;Laerm;66427;51.798;10.954;2023-12-20T03:41:09;35.86;29.07;58.16;;
77361;Laerm;66427;51.798;10.954;2023-12-20T03:43:35;33.17;29.24;39.77;;
77361;Laerm;66427;51.798;10.954;2023-12-20T03:46:00;34.11;29.52;46.46;;
77361;Laerm;66427;51.798;10.954;2023-12-20T03:48:26;31.78;29.03;38.23;;
77361;Laerm;66427;51.798;10.954;2023-12-20T03:50:51;36.17;30.29;47.72;;
77361;Laerm;66427;51.798;10.954;2023-12-20T03:53:16;40.95;30.74;66.54;;
77361;Laerm;66427;51.798;10.954;2023-12-20T03:55:42;34.77;30.41;45.08;;
77361;Laerm;66427;51.798;10.954;2023-12-20T03:58:07;32.46;28.89;40.46;;
77361;Laerm;66427;51.798;10.954;2023-12-20T04:00:33;34.18;31.18;41.98;;
77361;Laerm;66427;51.798;10.954;2023-12-20T04:02:58;34.93;31.42;42.74;;
77361;Laerm;66427;51.798;10.954;2023-12-20T04:05:23;37.25;33.30;58.50;;
77361;Laerm;66427;51.798;10.954;2023-12-20T04:07:49;35.83;32.05;41.51;;
77361;Laerm;66427;51.798;10.954;2023-12-20T04:10:15;36.31;32.23;43.15;;
77361;Laerm;66427;51.798;10.954;2023-12-20T04:12:41;34.62;31.33;39.50;;
77361;Laerm;66427;51.798;10.954;2023-12-20T04:15:06;36.55;31.81;44.26;;
77361;Laerm;66427;51.798;10.954;2023-12-20T04:17:34;34.55;31.20;42.93;;
77361;Laerm;66427;51.798;10.954;2023-12-20T04:20:00;40.63;30.75;60.42;;
77361;Laerm;66427;51.798;10.954;2023-12-20T04:22:25;48.38;32.63;64.01;;
77361;Laerm;66427;51.798;10.954;2023-12-20T04:24:50;44.47;32.48;64.33;;
77361;Laerm;66427;51.798;10.954;2023-12-20T04:27:16;45.14;32.78;62.69;;
77361;Laerm;66427;51.798;10.954;2023-12-20T04:29:41;51.03;33.45;64.12;;
77361;Laerm;66427;51.798;10.954;2023-12-20T04:32:07;35.27;31.04;59.18;;
77361;Laerm;66427;51.798;10.954;2023-12-20T04:34:32;46.79;32.63;61.32;;
77361;Laerm;66427;51.798;10.954;2023-12-20T04:36:58;47.22;31.96;64.01;;
77361;Laerm;66427;51.798;10.954;2023-12-20T04:39:23;38.44;32.76;63.09;;
77361;Laerm;66427;51.798;10.954;2023-12-20T04:41:48;43.24;32.39;61.61;;
77361;Laerm;66427;51.798;10.954;2023-12-20T04:44:15;46.43;34.50;61.78;;
77361;Laerm;66427;51.798;10.954;2023-12-20T04:46:40;49.77;32.95;66.20;;
77361;Laerm;66427;51.798;10.954;2023-12-20T04:49:06;38.11;32.49;52.48;;
77361;Laerm;66427;51.798;10.954;2023-12-20T04:51:34;49.28;33.73;62.61;;
77361;Laerm;66427;51.798;10.954;2023-12-20T04:54:00;50.67;32.19;67.99;;
77361;Laerm;66427;51.798;10.954;2023-12-20T04:56:25;49.13;31.76;63.49;;
77361;Laerm;66427;51.798;10.954;2023-12-20T04:58:51;46.12;32.16;64.33;;
77361;Laerm;66427;51.798;10.954;2023-12-20T05:01:16;38.07;32.10;60.44;;
77361;Laerm;66427;51.798;10.954;2023-12-20T05:03:42;44.47;33.17;64.44;;
77361;Laerm;66427;51.798;10.954;2023-12-20T05:06:07;55.26;36.99;74.48;;
77361;Laerm;66427;51.798;10.954;2023-12-20T05:08:33;42.56;34.89;58.14;;
77361;Laerm;66427;51.798;10.954;2023-12-20T05:10:58;46.21;33.85;61.98;;
77361;Laerm;66427;51.798;10.954;2023-12-20T05:13:24;38.67;34.83;46.28;;
77361;Laerm;66427;51.798;10.954;2023-12-20T05:15:49;48.65;34.66;65.37;;
77361;Laerm;66427;51.798;10.954;2023-12-20T05:18:14;44.00;35.82;59.54;;
77361;Laerm;66427;51.798;10.954;2023-12-20T05:20:40;52.56;35.60;70.50;;
77361;Laerm;66427;51.798;10.954;2023-12-20T05:23:05;49.33;34.91;66.13;;
77361;Laerm;66427;51.798;10.954;2023-12-20T05:25:31;50.11;37.24;65.97;;
77361;Laerm;66427;51.798;10.954;2023-12-20T05:27:56;54.59;37.58;70.70;;
77361;Laerm;66427;51.798;10.954;2023-12-20T05:30:21;50.18;36.17;64.38;;
77361;Laerm;66427;51.798;10.954;2023-12-20T05:32:47;53.01;36.82;67.22;;
77361;Laerm;66427;51.798;10.954;2023-12-20T05:35:12;50.54;37.47;69.41;;
77361;Laerm;66427;51.798;10.954;2023-12-20T05:37:38;47.48;37.06;62.86;;
77361;Laerm;66427;51.798;10.954;2023-12-20T05:40:03;46.80;38.67;58.84;;
77361;Laerm;66427;51.798;10.954;2023-12-20T05:42:29;51.36;37.62;64.61;;
77361;Laerm;66427;51.798;10.954;2023-12-20T05:44:55;55.55;36.49;68.83;;
77361;Laerm;66427;51.798;10.954;2023-12-20T05:47:20;44.96;37.32;73.50;;
77361;Laerm;66427;51.798;10.954;2023-12-20T05:49:45;54.32;39.55;67.39;;
77361;Laerm;66427;51.798;10.954;2023-12-20T05:52:11;53.86;38.28;66.21;;
77361;Laerm;66427;51.798;10.954;2023-12-20T05:54:36;57.30;39.70;71.95;;
77361;Laerm;66427;51.798;10.954;2023-12-20T05:57:02;56.68;40.24;71.38;;
77361;Laerm;66427;51.798;10.954;2023-12-20T05:59:27;52.08;37.75;65.95;;
77361;Laerm;66427;51.798;10.954;2023-12-20T06:01:53;46.63;37.85;60.39;;
77361;Laerm;66427;51.798;10.954;2023-12-20T06:04:18;55.10;37.66;70.19;;
77361;Laerm;66427;51.798;10.954;2023-12-20T06:06:44;53.24;38.09;66.99;;
77361;Laerm;66427;51.798;10.954;2023-12-20T06:09:09;61.16;37.84;79.02;;
77361;Laerm;66427;51.798;10.954;2023-12-20T06:11:35;53.71;37.59;66.14;;
77361;Laerm;66427;51.798;10.954;2023-12-20T06:14:00;55.17;37.96;66.28;;
77361;Laerm;66427;51.798;10.954;2023-12-20T06:16:26;51.07;37.84;67.36;;
77361;Laerm;66427;51.798;10.954;2023-12-20T06:18:51;52.71;39.86;66.07;;
77361;Laerm;66427;51.798;10.954;2023-12-20T06:21:16;54.20;38.99;65.15;;
77361;Laerm;66427;51.798;10.954;2023-12-20T06:23:42;59.95;42.18;74.74;;
77361;Laerm;66427;51.798;10.954;2023-12-20T06:26:07;57.01;40.34;70.21;;
77361;Laerm;66427;51.798;10.954;2023-12-20T06:28:33;54.27;40.52;66.48;;
77361;Laerm;66427;51.798;10.954;2023-12-20T06:30:58;54.60;39.82;65.13;;
77361;Laerm;66427;51.798;10.954;2023-12-20T06:33:25;60.49;40.81;77.49;;
77361;Laerm;66427;51.798;10.954;2023-12-20T06:35:51;57.61;39.88;69.36;;
77361;Laerm;66427;51.798;10.954;2023-12-20T06:38:17;58.50;38.88;74.42;;
77361;Laerm;66427;51.798;10.954;2023-12-20T06:40:43;51.16;39.95;66.16;;
77361;Laerm;66427;51.798;10.954;2023-12-20T06:43:08;58.77;41.93;67.67;;
77361;Laerm;66427;51.798;10.954;2023-12-20T06:45:34;56.48;41.20;73.84;;
77361;Laerm;66427;51.798;10.954;2023-12-20T06:47:59;54.36;39.23;72.39;;
77361;Laerm;66427;51.798;10.954;2023-12-20T06:50:25;57.09;39.87;71.60;;
77361;Laerm;66427;51.798;10.954;2023-12-20T06:52:50;48.32;40.01;62.95;;
77361;Laerm;66427;51.798;10.954;2023-12-20T06:55:17;52.98;39.03;68.16;;
77361;Laerm;66427;51.798;10.954;2023-12-20T06:57:42;55.09;39.91;66.19;;
77361;Laerm;66427;51.798;10.954;2023-12-20T07:00:08;57.12;42.25;66.30;;
77361;Laerm;66427;51.798;10.954;2023-12-20T07:02:33;50.76;40.91;62.86;;
77361;Laerm;66427;51.798;10.954;2023-12-20T07:04:59;49.26;39.51;64.51;;
77361;Laerm;66427;51.798;10.954;2023-12-20T07:07:25;52.19;41.25;67.62;;
77361;Laerm;66427;51.798;10.954;2023-12-20T07:09:51;54.54;39.17;64.48;;
77361;Laerm;66427;51.798;10.954;2023-12-20T07:12:16;53.96;38.82;67.81;;
77361;Laerm;66427;51.798;10.954;2023-12-20T07:14:44;49.80;40.27;65.68;;
77361;Laerm;66427;51.798;10.954;2023-12-20T07:17:10;59.20;38.30;74.04;;
77361;Laerm;66427;51.798;10.954;2023-12-20T07:19:37;52.51;39.27;68.89;;
77361;Laerm;66427;51.798;10.954;2023-12-20T07:22:03;51.54;39.58;63.94;;
77361;Laerm;66427;51.798;10.954;2023-12-20T07:24:29;50.45;39.17;63.67;;
77361;Laerm;66427;51.798;10.954;2023-12-20T07:26:54;54.35;39.73;66.38;;
77361;Laerm;66427;51.798;10.954;2023-12-20T07:29:20;55.01;40.18;75.51;;
77361;Laerm;66427;51.798;10.954;2023-12-20T07:31:45;54.29;40.71;71.29;;
77361;Laerm;66427;51.798;10.954;2023-12-20T07:34:10;57.43;41.36;73.58;;
77361;Laerm;66427;51.798;10.954;2023-12-20T07:36:36;54.88;39.76;66.86;;
77361;Laerm;66427;51.798;10.954;2023-12-20T07:39:01;62.80;43.16;81.44;;
77361;Laerm;66427;51.798;10.954;2023-12-20T07:41:27;56.08;38.33;70.02;;
77361;Laerm;66427;51.798;10.954;2023-12-20T07:43:52;49.35;38.26;64.80;;
77361;Laerm;66427;51.798;10.954;2023-12-20T07:46:19;55.61;40.07;69.51;;
77361;Laerm;66427;51.798;10.954;2023-12-20T07:48:47;52.55;37.85;65.69;;
77361;Laerm;66427;51.798;10.954;2023-12-20T07:51:13;57.65;37.95;72.35;;
77361;Laerm;66427;51.798;10.954;2023-12-20T07:53:38;54.08;36.02;67.86;;
77361;Laerm;66427;51.798;10.954;2023-12-20T07:56:13;58.25;39.67;71.40;;
77361;Laerm;66427;51.798;10.954;2023-12-20T07:58:38;56.80;37.29;68.78;;
77361;Laerm;66427;51.798;10.954;2023-12-20T08:01:03;48.86;38.10;64.62;;
77361;Laerm;66427;51.798;10.954;2023-12-20T08:03:29;52.44;36.20;67.38;;
77361;Laerm;66427;51.798;10.954;2023-12-20T08:05:54;54.58;35.71;65.55;;
77361;Laerm;66427;51.798;10.954;2023-12-20T08:08:20;48.37;35.74;68.23;;
77361;Laerm;66427;51.798;10.954;2023-12-20T08:10:45;52.86;38.17;65.39;;
77361;Laerm;66427;51.798;10.954;2023-12-20T08:13:10;55.36;39.32;67.15;;
77361;Laerm;66427;51.798;10.954;2023-12-20T08:15:36;56.90;40.37;72.63;;
77361;Laerm;66427;51.798;10.954;2023-12-20T08:18:02;53.57;39.62;67.51;;
77361;Laerm;66427;51.798;10.954;2023-12-20T08:20:28;57.07;39.95;73.38;;
77361;Laerm;66427;51.798;10.954;2023-12-20T08:22:53;52.28;38.57;68.35;;
77361;Laerm;66427;51.798;10.954;2023-12-20T08:25:19;54.62;40.51;68.32;;
77361;Laerm;66427;51.798;10.954;2023-12-20T08:27:44;59.34;46.93;71.03;;
77361;Laerm;66427;51.798;10.954;2023-12-20T08:30:10;61.90;50.63;72.82;;
77361;Laerm;66427;51.798;10.954;2023-12-20T08:32:35;67.52;42.20;84.13;;
77361;Laerm;66427;51.798;10.954;2023-12-20T08:35:01;57.69;40.50;73.91;;
77361;Laerm;66427;51.798;10.954;2023-12-20T08:37:26;52.17;41.45;64.45;;
77361;Laerm;66427;51.798;10.954;2023-12-20T08:39:51;54.72;41.62;71.34;;
77361;Laerm;66427;51.798;10.954;2023-12-20T08:42:17;50.91;41.30;62.47;;
77361;Laerm;66427;51.798;10.954;2023-12-20T08:44:42;61.46;41.67;78.41;;
77361;Laerm;66427;51.798;10.954;2023-12-20T08:47:08;55.29;42.77;65.90;;
77361;Laerm;66427;51.798;10.954;2023-12-20T08:49:33;55.01;40.55;68.87;;
77361;Laerm;66427;51.798;10.954;2023-12-20T08:51:58;55.16;42.79;65.94;;
77361;Laerm;66427;51.798;10.954;2023-12-20T08:54:24;52.28;41.61;67.22;;
77361;Laerm;66427;51.798;10.954;2023-12-20T08:56:49;56.25;41.53;66.79;;
77361;Laerm;66427;51.798;10.954;2023-12-20T08:59:15;55.88;42.30;68.17;;
77361;Laerm;66427;51.798;10.954;2023-12-20T09:01:40;52.79;41.20;67.91;;
77361;Laerm;66427;51.798;10.954;2023-12-20T09:04:06;55.70;41.74;66.33;;
77361;Laerm;66427;51.798;10.954;2023-12-20T09:06:31;56.14;42.33;68.11;;
77361;Laerm;66427;51.798;10.954;2023-12-20T09:08:57;57.41;42.50;67.94;;
77361;Laerm;66427;51.798;10.954;2023-12-20T09:11:22;57.45;44.06;70.10;;
77361;Laerm;66427;51.798;10.954;2023-12-20T09:13:47;53.00;41.88;67.86;;
77361;Laerm;66427;51.798;10.954;2023-12-20T09:16:13;59.65;42.95;76.29;;
77361;Laerm;66427;51.798;10.954;2023-12-20T09:18:41;54.57;40.14;67.63;;
77361;Laerm;66427;51.798;10.954;2023-12-20T09:21:06;53.45;40.62;66.42;;
77361;Laerm;66427;51.798;10.954;2023-12-20T09:23:32;54.06;41.35;68.06;;
77361;Laerm;66427;51.798;10.954;2023-12-20T09:25:57;54.90;41.53;70.56;;
77361;Laerm;66427;51.798;10.954;2023-12-20T09:28:22;57.69;42.78;74.31;;
77361;Laerm;66427;51.798;10.954;2023-12-20T09:30:48;57.81;42.67;71.18;;
77361;Laerm;66427;51.798;10.954;2023-12-20T09:33:14;56.67;42.62;71.93;;
77361;Laerm;66427;51.798;10.954;2023-12-20T09:35:39;56.50;45.00;67.19;;
77361;Laerm;66427;51.798;10.954;2023-12-20T09:38:05;54.29;44.02;66.09;;
77361;Laerm;66427;51.798;10.954;2023-12-20T09:40:30;52.33;39.97;65.90;;
77361;Laerm;66427;51.798;10.954;2023-12-20T09:42:57;56.79;45.17;67.25;;
77361;Laerm;66427;51.798;10.954;2023-12-20T09:45:23;56.20;44.88;68.88;;
77361;Laerm;66427;51.798;10.954;2023-12-20T09:47:50;57.80;43.63;69.66;;
77361;Laerm;66427;51.798;10.954;2023-12-20T09:50:20;58.63;45.44;71.14;;
77361;Laerm;66427;51.798;10.954;2023-12-20T09:52:52;55.59;41.61;72.73;;
77361;Laerm;66427;51.798;10.954;2023-12-20T09:55:18;58.16;42.27;72.40;;
77361;Laerm;66427;51.798;10.954;2023-12-20T09:57:45;59.63;43.10;69.83;;
77361;Laerm;66427;51.798;10.954;2023-12-20T10:00:10;58.65;43.63;69.68;;
77361;Laerm;66427;51.798;10.954;2023-12-20T10:02:36;59.53;44.66;69.79;;
77361;Laerm;66427;51.798;10.954;2023-12-20T10:05:03;58.69;44.68;74.40;;
77361;Laerm;66427;51.798;10.954;2023-12-20T10:07:30;55.84;43.16;69.10;;
77361;Laerm;66427;51.798;10.954;2023-12-20T10:09:56;51.39;45.37;60.77;;
77361;Laerm;66427;51.798;10.954;2023-12-20T10:12:21;58.87;44.15;72.60;;
77361;Laerm;66427;51.798;10.954;2023-12-20T10:14:46;56.90;43.73;70.33;;
77361;Laerm;66427;51.798;10.954;2023-12-20T10:17:12;59.06;41.48;72.19;;
77361;Laerm;66427;51.798;10.954;2023-12-20T10:19:37;57.54;43.66;73.02;;
77361;Laerm;66427;51.798;10.954;2023-12-20T10:22:06;52.00;42.40;64.74;;
77361;Laerm;66427;51.798;10.954;2023-12-20T10:24:31;52.84;42.50;64.28;;
77361;Laerm;66427;51.798;10.954;2023-12-20T10:27:07;55.40;45.17;67.70;;
77361;Laerm;66427;51.798;10.954;2023-12-20T10:29:35;56.11;44.14;65.24;;
77361;Laerm;66427;51.798;10.954;2023-12-20T10:34:45;58.62;43.14;73.51;;
77361;Laerm;66427;51.798;10.954;2023-12-20T10:37:10;58.55;43.96;77.55;;
77361;Laerm;66427;51.798;10.954;2023-12-20T10:39:36;55.62;41.36;67.47;;
77361;Laerm;66427;51.798;10.954;2023-12-20T10:42:01;52.55;42.78;65.31;;
77361;Laerm;66427;51.798;10.954;2023-12-20T10:44:28;56.45;40.45;67.82;;
77361;Laerm;66427;51.798;10.954;2023-12-20T10:46:53;55.78;41.85;66.23;;
77361;Laerm;66427;51.798;10.954;2023-12-20T10:49:24;56.21;44.56;70.23;;
77361;Laerm;66427;51.798;10.954;2023-12-20T10:51:49;57.34;43.15;70.49;;
77361;Laerm;66427;51.798;10.954;2023-12-20T10:54:16;62.20;45.15;75.80;;
77361;Laerm;66427;51.798;10.954;2023-12-20T10:56:42;63.10;47.42;83.22;;
77361;Laerm;66427;51.798;10.954;2023-12-20T10:59:07;53.41;42.83;65.57;;
77361;Laerm;66427;51.798;10.954;2023-12-20T11:01:35;54.04;41.58;68.26;;
77361;Laerm;66427;51.798;10.954;2023-12-20T11:04:03;60.87;45.89;73.04;;
77361;Laerm;66427;51.798;10.954;2023-12-20T11:06:43;65.94;44.44;81.74;;
77361;Laerm;66427;51.798;10.954;2023-12-20T11:12:13;54.95;42.82;65.23;;
77361;Laerm;66427;51.798;10.954;2023-12-20T11:14:32;57.41;42.34;69.93;;
77361;Laerm;66427;51.798;10.954;2023-12-20T11:17:05;58.05;41.35;70.53;;
77361;Laerm;66427;51.798;10.954;2023-12-20T11:19:31;53.66;40.68;69.71;;
77361;Laerm;66427;51.798;10.954;2023-12-20T11:21:56;55.01;40.89;67.81;;
77361;Laerm;66427;51.798;10.954;2023-12-20T11:24:22;56.27;40.53;66.97;;
77361;Laerm;66427;51.798;10.954;2023-12-20T11:26:49;55.34;42.94;68.61;;
77361;Laerm;66427;51.798;10.954;2023-12-20T11:29:31;59.01;42.07;70.80;;
77361;Laerm;66427;51.798;10.954;2023-12-20T11:31:58;58.37;44.73;69.35;;
77361;Laerm;66427;51.798;10.954;2023-12-20T11:34:26;57.68;40.86;72.81;;
77361;Laerm;66427;51.798;10.954;2023-12-20T11:36:59;56.93;41.47;68.04;;
77361;Laerm;66427;51.798;10.954;2023-12-20T11:39:25;55.44;40.27;70.35;;
77361;Laerm;66427;51.798;10.954;2023-12-20T11:41:51;57.89;41.94;70.36;;
77361;Laerm;66427;51.798;10.954;2023-12-20T11:44:17;68.88;45.08;83.71;;
77361;Laerm;66427;51.798;10.954;2023-12-20T11:46:43;55.27;44.08;68.74;;
77361;Laerm;66427;51.798;10.954;2023-12-20T11:49:09;49.76;44.03;62.12;;
77361;Laerm;66427;51.798;10.954;2023-12-20T11:51:34;54.46;44.78;65.38;;
77361;Laerm;66427;51.798;10.954;2023-12-20T11:54:00;57.18;44.71;72.34;;
77361;Laerm;66427;51.798;10.954;2023-12-20T11:56:25;61.25;43.70;79.55;;
77361;Laerm;66427;51.798;10.954;2023-12-20T11:58:50;59.86;44.18;70.78;;
77361;Laerm;66427;51.798;10.954;2023-12-20T12:01:16;55.36;44.33;72.34;;
77361;Laerm;66427;51.798;10.954;2023-12-20T12:03:41;52.01;43.26;65.98;;
77361;Laerm;66427;51.798;10.954;2023-12-20T12:06:08;56.72;45.10;70.50;;
77361;Laerm;66427;51.798;10.954;2023-12-20T12:08:33;60.20;45.94;69.24;;
77361;Laerm;66427;51.798;10.954;2023-12-20T12:10:59;59.05;44.89;73.69;;
77361;Laerm;66427;51.798;10.954;2023-12-20T12:13:24;56.07;44.14;70.20;;
77361;Laerm;66427;51.798;10.954;2023-12-20T12:15:52;52.99;41.35;66.94;;
77361;Laerm;66427;51.798;10.954;2023-12-20T12:18:18;52.34;40.44;67.42;;
77361;Laerm;66427;51.798;10.954;2023-12-20T12:20:43;58.45;43.36;68.63;;
77361;Laerm;66427;51.798;10.954;2023-12-20T12:23:09;54.51;41.06;70.96;;
77361;Laerm;66427;51.798;10.954;2023-12-20T12:25:35;48.91;40.66;63.04;;
77361;Laerm;66427;51.798;10.954;2023-12-20T12:28:01;49.67;41.14;65.01;;
77361;Laerm;66427;51.798;10.954;2023-12-20T12:30:27;60.35;42.78;76.77;;
77361;Laerm;66427;51.798;10.954;2023-12-20T12:32:53;56.18;40.24;72.76;;
77361;Laerm;66427;51.798;10.954;2023-12-20T12:35:18;53.22;40.51;67.42;;
77361;Laerm;66427;51.798;10.954;2023-12-20T12:37:44;58.60;41.28;73.52;;
77361;Laerm;66427;51.798;10.954;2023-12-20T12:40:10;56.52;40.68;68.44;;
77361;Laerm;66427;51.798;10.954;2023-12-20T12:42:36;58.62;42.15;70.69;;
77361;Laerm;66427;51.798;10.954;2023-12-20T12:45:01;45.99;40.93;56.72;;
77361;Laerm;66427;51.798;10.954;2023-12-20T12:47:27;52.85;39.53;68.17;;
77361;Laerm;66427;51.798;10.954;2023-12-20T12:49:52;54.92;42.54;70.27;;
77361;Laerm;66427;51.798;10.954;2023-12-20T12:52:18;55.95;39.71;71.32;;
77361;Laerm;66427;51.798;10.954;2023-12-20T12:54:43;56.60;39.70;70.32;;
77361;Laerm;66427;51.798;10.954;2023-12-20T12:57:10;53.86;41.52;68.40;;
77361;Laerm;66427;51.798;10.954;2023-12-20T12:59:36;58.81;42.20;71.64;;
77361;Laerm;66427;51.798;10.954;2023-12-20T13:02:01;52.18;41.50;63.85;;
77361;Laerm;66427;51.798;10.954;2023-12-20T13:04:26;56.02;42.10;66.90;;
77361;Laerm;66427;51.798;10.954;2023-12-20T13:06:52;56.04;42.76;70.50;;
77361;Laerm;66427;51.798;10.954;2023-12-20T13:09:17;57.77;41.55;73.73;;
77361;Laerm;66427;51.798;10.954;2023-12-20T13:11:44;59.16;43.41;71.56;;
77361;Laerm;66427;51.798;10.954;2023-12-20T13:14:09;56.20;42.99;68.30;;
77361;Laerm;66427;51.798;10.954;2023-12-20T13:16:40;59.49;39.64;81.43;;
77361;Laerm;66427;51.798;10.954;2023-12-20T13:19:06;53.94;40.11;69.25;;
77361;Laerm;66427;51.798;10.954;2023-12-20T13:21:31;46.85;40.40;67.26;;
77361;Laerm;66427;51.798;10.954;2023-12-20T13:23:56;53.40;41.15;66.67;;
77361;Laerm;66427;51.798;10.954;2023-12-20T13:26:22;54.89;40.43;69.12;;
77361;Laerm;66427;51.798;10.954;2023-12-20T13:28:47;54.53;43.02;69.74;;